sensor_id;sensor_type;location;lat;lon;timestamp;temperature;humidity
16267;DHT22;8241;48.786;9.250;2023-02-24T00:01:50;10.20;99.90
16267;DHT22;8241;48.786;9.250;2023-02-24T00:04:26;10.20;99.90
16267;DHT22;8241;48.786;9.250;2023-02-24T00:06:54;10.20;99.90
16267;DHT22;8241;48.786;9.250;2023-02-24T00:09:23;10.20;99.90
16267;DHT22;8241;48.786;9.250;2023-02-24T00:11:53;10.20;99.90
16267;DHT22;8241;48.786;9.250;2023-02-24T00:14:26;10.30;99.90
16267;DHT22;8241;48.786;9.250;2023-02-24T00:16:54;10.20;99.90
16267;DHT22;8241;48.786;9.250;2023-02-24T00:19:22;10.20;99.90
16267;DHT22;8241;48.786;9.250;2023-02-24T00:21:52;10.20;99.90
16267;DHT22;8241;48.786;9.250;2023-02-24T00:24:20;10.20;99.90
16267;DHT22;8241;48.786;9.250;2023-02-24T00:26:51;10.20;99.90
16267;DHT22;8241;48.786;9.250;2023-02-24T00:29:22;10.30;99.90
16267;DHT22;8241;48.786;9.250;2023-02-24T00:31:54;10.20;99.90
16267;DHT22;8241;48.786;9.250;2023-02-24T00:34:26;10.30;99.90
16267;DHT22;8241;48.786;9.250;2023-02-24T00:36:57;10.20;99.90
16267;DHT22;8241;48.786;9.250;2023-02-24T00:39:24;10.20;99.90
16267;DHT22;8241;48.786;9.250;2023-02-24T00:41:58;10.20;99.90
16267;DHT22;8241;48.786;9.250;2023-02-24T00:44:29;10.20;99.90
16267;DHT22;8241;48.786;9.250;2023-02-24T00:46:58;10.20;99.90
16267;DHT22;8241;48.786;9.250;2023-02-24T00:49:26;10.20;99.90
16267;DHT22;8241;48.786;9.250;2023-02-24T00:51:55;10.30;99.90
16267;DHT22;8241;48.786;9.250;2023-02-24T00:54:23;10.30;99.90
16267;DHT22;8241;48.786;9.250;2023-02-24T00:56:53;10.30;99.90
16267;DHT22;8241;48.786;9.250;2023-02-24T00:59:22;10.20;99.90
16267;DHT22;8241;48.786;9.250;2023-02-24T01:01:50;10.20;99.90
16267;DHT22;8241;48.786;9.250;2023-02-24T01:04:20;10.30;99.90
16267;DHT22;8241;48.786;9.250;2023-02-24T01:06:50;10.20;99.90
16267;DHT22;8241;48.786;9.250;2023-02-24T01:09:23;10.20;99.90
16267;DHT22;8241;48.786;9.250;2023-02-24T01:11:52;10.20;99.90
16267;DHT22;8241;48.786;9.250;2023-02-24T01:14:45;10.20;99.90
16267;DHT22;8241;48.786;9.250;2023-02-24T01:17:13;10.20;99.90
16267;DHT22;8241;48.786;9.250;2023-02-24T01:19:42;10.20;99.90
16267;DHT22;8241;48.786;9.250;2023-02-24T01:22:17;10.20;99.90
16267;DHT22;8241;48.786;9.250;2023-02-24T01:24:47;10.20;99.90
16267;DHT22;8241;48.786;9.250;2023-02-24T01:27:15;10.20;99.90
16267;DHT22;8241;48.786;9.250;2023-02-24T01:29:45;10.20;99.90
16267;DHT22;8241;48.786;9.250;2023-02-24T01:32:15;10.20;99.90
16267;DHT22;8241;48.786;9.250;2023-02-24T01:34:46;10.20;99.90
16267;DHT22;8241;48.786;9.250;2023-02-24T01:37:16;10.20;99.90
16267;DHT22;8241;48.786;9.250;2023-02-24T01:39:47;10.20;99.90
16267;DHT22;8241;48.786;9.250;2023-02-24T01:42:17;10.30;99.90
16267;DHT22;8241;48.786;9.250;2023-02-24T01:45:14;10.20;99.90
16267;DHT22;8241;48.786;9.250;2023-02-24T01:47:42;10.20;99.90
16267;DHT22;8241;48.786;9.250;2023-02-24T01:50:12;10.20;99.90
16267;DHT22;8241;48.786;9.250;2023-02-24T01:52:42;10.20;99.90
16267;DHT22;8241;48.786;9.250;2023-02-24T01:55:15;10.20;99.90
16267;DHT22;8241;48.786;9.250;2023-02-24T01:57:48;10.20;99.90
16267;DHT22;8241;48.786;9.250;2023-02-24T02:00:18;10.20;99.90
16267;DHT22;8241;48.786;9.250;2023-02-24T02:03:00;10.10;99.90
16267;DHT22;8241;48.786;9.250;2023-02-24T02:05:29;10.10;99.90
16267;DHT22;8241;48.786;9.250;2023-02-24T02:08:13;10.10;99.90
16267;DHT22;8241;48.786;9.250;2023-02-24T02:10:43;10.00;99.90
16267;DHT22;8241;48.786;9.250;2023-02-24T02:13:12;10.00;99.90
16267;DHT22;8241;48.786;9.250;2023-02-24T02:15:51;10.10;99.90
16267;DHT22;8241;48.786;9.250;2023-02-24T02:18:32;10.00;99.90
16267;DHT22;8241;48.786;9.250;2023-02-24T02:21:31;10.00;99.90
16267;DHT22;8241;48.786;9.250;2023-02-24T02:24:17;10.10;99.90
16267;DHT22;8241;48.786;9.250;2023-02-24T02:33:41;10.00;99.90
16267;DHT22;8241;48.786;9.250;2023-02-24T02:36:13;10.00;99.90
16267;DHT22;8241;48.786;9.250;2023-02-24T02:38:51;10.00;99.90
16267;DHT22;8241;48.786;9.250;2023-02-24T02:41:23;9.90;99.90
16267;DHT22;8241;48.786;9.250;2023-02-24T02:43:58;9.90;99.90
16267;DHT22;8241;48.786;9.250;2023-02-24T02:46:33;9.90;99.90
16267;DHT22;8241;48.786;9.250;2023-02-24T02:49:10;9.90;99.90
16267;DHT22;8241;48.786;9.250;2023-02-24T02:51:43;9.90;99.90
16267;DHT22;8241;48.786;9.250;2023-02-24T02:54:20;9.90;99.90
16267;DHT22;8241;48.786;9.250;2023-02-24T02:57:05;9.90;99.90
16267;DHT22;8241;48.786;9.250;2023-02-24T02:59:46;9.80;99.90
16267;DHT22;8241;48.786;9.250;2023-02-24T03:02:17;9.80;99.90
16267;DHT22;8241;48.786;9.250;2023-02-24T03:04:50;9.80;99.90
16267;DHT22;8241;48.786;9.250;2023-02-24T03:07:21;9.80;99.90
16267;DHT22;8241;48.786;9.250;2023-02-24T03:09:59;9.80;99.90
16267;DHT22;8241;48.786;9.250;2023-02-24T03:12:29;9.80;99.90
16267;DHT22;8241;48.786;9.250;2023-02-24T03:15:01;9.80;99.90
16267;DHT22;8241;48.786;9.250;2023-02-24T03:17:33;9.80;99.90
16267;DHT22;8241;48.786;9.250;2023-02-24T03:20:13;9.80;99.90
16267;DHT22;8241;48.786;9.250;2023-02-24T03:22:45;9.80;99.90
16267;DHT22;8241;48.786;9.250;2023-02-24T03:25:14;9.80;99.90
16267;DHT22;8241;48.786;9.250;2023-02-24T03:27:48;9.80;99.90
16267;DHT22;8241;48.786;9.250;2023-02-24T03:30:20;9.80;99.90
16267;DHT22;8241;48.786;9.250;2023-02-24T03:32:50;9.80;99.90
16267;DHT22;8241;48.786;9.250;2023-02-24T03:35:24;9.80;99.90
16267;DHT22;8241;48.786;9.250;2023-02-24T03:37:52;9.80;99.90
16267;DHT22;8241;48.786;9.250;2023-02-24T03:40:20;9.80;99.90
16267;DHT22;8241;48.786;9.250;2023-02-24T03:42:59;9.80;99.90
16267;DHT22;8241;48.786;9.250;2023-02-24T03:45:33;9.80;99.90
16267;DHT22;8241;48.786;9.250;2023-02-24T03:48:03;9.80;99.90
16267;DHT22;8241;48.786;9.250;2023-02-24T03:50:33;9.80;99.90
16267;DHT22;8241;48.786;9.250;2023-02-24T03:53:25;9.80;99.90
16267;DHT22;8241;48.786;9.250;2023-02-24T03:56:01;9.80;99.90
16267;DHT22;8241;48.786;9.250;2023-02-24T03:58:46;9.80;99.90
16267;DHT22;8241;48.786;9.250;2023-02-24T04:01:22;9.80;99.90
16267;DHT22;8241;48.786;9.250;2023-02-24T04:03:58;9.80;99.90
16267;DHT22;8241;48.786;9.250;2023-02-24T04:06:43;9.90;99.90
16267;DHT22;8241;48.786;9.250;2023-02-24T04:09:15;9.90;99.90
16267;DHT22;8241;48.786;9.250;2023-02-24T04:11:56;9.90;99.90
16267;DHT22;8241;48.786;9.250;2023-02-24T04:14:29;9.90;99.90
16267;DHT22;8241;48.786;9.250;2023-02-24T04:17:02;9.90;99.90
16267;DHT22;8241;48.786;9.250;2023-02-24T04:19:36;9.90;99.90
16267;DHT22;8241;48.786;9.250;2023-02-24T04:22:09;9.90;99.90
16267;DHT22;8241;48.786;9.250;2023-02-24T04:24:38;9.80;99.90
16267;DHT22;8241;48.786;9.250;2023-02-24T04:27:09;9.80;99.90
16267;DHT22;8241;48.786;9.250;2023-02-24T04:29:42;9.80;99.90
16267;DHT22;8241;48.786;9.250;2023-02-24T04:32:16;9.80;99.90
16267;DHT22;8241;48.786;9.250;2023-02-24T04:34:44;9.80;99.90
16267;DHT22;8241;48.786;9.250;2023-02-24T04:37:13;9.80;99.90
16267;DHT22;8241;48.786;9.250;2023-02-24T04:39:40;9.80;99.90
16267;DHT22;8241;48.786;9.250;2023-02-24T04:42:12;9.70;99.90
16267;DHT22;8241;48.786;9.250;2023-02-24T04:44:39;9.70;99.90
16267;DHT22;8241;48.786;9.250;2023-02-24T04:47:09;9.70;99.90
16267;DHT22;8241;48.786;9.250;2023-02-24T04:49:36;9.70;99.90
16267;DHT22;8241;48.786;9.250;2023-02-24T04:52:05;9.70;99.90
16267;DHT22;8241;48.786;9.250;2023-02-24T04:54:35;9.70;99.90
16267;DHT22;8241;48.786;9.250;2023-02-24T04:57:02;9.70;99.90
16267;DHT22;8241;48.786;9.250;2023-02-24T04:59:31;9.70;99.90
16267;DHT22;8241;48.786;9.250;2023-02-24T05:01:58;9.70;99.90
16267;DHT22;8241;48.786;9.250;2023-02-24T05:04:27;9.70;99.90
16267;DHT22;8241;48.786;9.250;2023-02-24T05:06:56;9.70;99.90
16267;DHT22;8241;48.786;9.250;2023-02-24T05:09:23;9.70;99.90
16267;DHT22;8241;48.786;9.250;2023-02-24T05:11:56;9.70;99.90
16267;DHT22;8241;48.786;9.250;2023-02-24T05:14:24;9.70;99.90
16267;DHT22;8241;48.786;9.250;2023-02-24T05:16:52;9.70;99.90
16267;DHT22;8241;48.786;9.250;2023-02-24T05:19:25;9.70;99.90
16267;DHT22;8241;48.786;9.250;2023-02-24T05:22:09;9.70;99.90
16267;DHT22;8241;48.786;9.250;2023-02-24T05:24:39;9.70;99.90
16267;DHT22;8241;48.786;9.250;2023-02-24T05:27:26;9.70;99.90
16267;DHT22;8241;48.786;9.250;2023-02-24T05:29:54;9.60;99.90
16267;DHT22;8241;48.786;9.250;2023-02-24T05:32:21;9.60;99.90
16267;DHT22;8241;48.786;9.250;2023-02-24T05:34:49;9.60;99.90
16267;DHT22;8241;48.786;9.250;2023-02-24T05:37:16;9.60;99.90
16267;DHT22;8241;48.786;9.250;2023-02-24T05:39:43;9.60;99.90
16267;DHT22;8241;48.786;9.250;2023-02-24T05:42:10;9.60;99.90
16267;DHT22;8241;48.786;9.250;2023-02-24T05:44:38;9.60;99.90
16267;DHT22;8241;48.786;9.250;2023-02-24T05:47:06;9.60;99.90
16267;DHT22;8241;48.786;9.250;2023-02-24T05:49:35;9.60;99.90
16267;DHT22;8241;48.786;9.250;2023-02-24T05:52:06;9.50;99.90
16267;DHT22;8241;48.786;9.250;2023-02-24T05:54:36;9.50;99.90
16267;DHT22;8241;48.786;9.250;2023-02-24T05:57:05;9.50;99.90
16267;DHT22;8241;48.786;9.250;2023-02-24T05:59:33;9.60;99.90
16267;DHT22;8241;48.786;9.250;2023-02-24T06:02:03;9.50;99.90
16267;DHT22;8241;48.786;9.250;2023-02-24T06:04:32;9.50;99.90
16267;DHT22;8241;48.786;9.250;2023-02-24T06:07:06;9.60;99.90
16267;DHT22;8241;48.786;9.250;2023-02-24T06:09:37;9.50;99.90
16267;DHT22;8241;48.786;9.250;2023-02-24T06:12:07;9.60;99.90
16267;DHT22;8241;48.786;9.250;2023-02-24T06:14:34;9.50;99.90
16267;DHT22;8241;48.786;9.250;2023-02-24T06:17:03;9.50;99.90
16267;DHT22;8241;48.786;9.250;2023-02-24T06:19:30;9.50;99.90
16267;DHT22;8241;48.786;9.250;2023-02-24T06:21:58;9.50;99.90
16267;DHT22;8241;48.786;9.250;2023-02-24T06:24:27;9.60;99.90
16267;DHT22;8241;48.786;9.250;2023-02-24T06:26:57;9.60;99.90
16267;DHT22;8241;48.786;9.250;2023-02-24T06:29:28;9.50;99.90
16267;DHT22;8241;48.786;9.250;2023-02-24T06:31:56;9.60;99.90
16267;DHT22;8241;48.786;9.250;2023-02-24T06:34:25;9.60;99.90
16267;DHT22;8241;48.786;9.250;2023-02-24T06:36:52;9.50;99.90
16267;DHT22;8241;48.786;9.250;2023-02-24T06:39:19;9.50;99.90
16267;DHT22;8241;48.786;9.250;2023-02-24T06:41:48;9.50;99.90
16267;DHT22;8241;48.786;9.250;2023-02-24T06:44:19;9.50;99.90
16267;DHT22;8241;48.786;9.250;2023-02-24T06:46:46;9.50;99.90
16267;DHT22;8241;48.786;9.250;2023-02-24T06:49:13;9.40;99.90
16267;DHT22;8241;48.786;9.250;2023-02-24T06:51:41;9.40;99.90
16267;DHT22;8241;48.786;9.250;2023-02-24T06:54:09;9.40;99.90
16267;DHT22;8241;48.786;9.250;2023-02-24T06:56:37;9.50;99.90
16267;DHT22;8241;48.786;9.250;2023-02-24T06:59:07;9.50;99.90
16267;DHT22;8241;48.786;9.250;2023-02-24T07:01:38;9.50;99.90
16267;DHT22;8241;48.786;9.250;2023-02-24T07:04:10;9.50;99.90
16267;DHT22;8241;48.786;9.250;2023-02-24T07:06:46;9.50;99.90
16267;DHT22;8241;48.786;9.250;2023-02-24T07:09:17;9.50;99.90
16267;DHT22;8241;48.786;9.250;2023-02-24T07:11:46;9.50;99.90
16267;DHT22;8241;48.786;9.250;2023-02-24T07:14:18;9.50;99.90
16267;DHT22;8241;48.786;9.250;2023-02-24T07:16:45;9.50;99.90
16267;DHT22;8241;48.786;9.250;2023-02-24T07:19:13;9.50;99.90
16267;DHT22;8241;48.786;9.250;2023-02-24T07:21:42;9.50;99.90
16267;DHT22;8241;48.786;9.250;2023-02-24T07:24:17;9.50;99.90
16267;DHT22;8241;48.786;9.250;2023-02-24T07:26:55;9.50;99.90
16267;DHT22;8241;48.786;9.250;2023-02-24T07:29:22;9.50;99.90
16267;DHT22;8241;48.786;9.250;2023-02-24T07:31:50;9.50;99.90
16267;DHT22;8241;48.786;9.250;2023-02-24T07:34:21;9.50;99.90
16267;DHT22;8241;48.786;9.250;2023-02-24T07:36:50;9.50;99.90
16267;DHT22;8241;48.786;9.250;2023-02-24T07:39:19;9.50;99.90
16267;DHT22;8241;48.786;9.250;2023-02-24T07:41:48;9.60;99.90
16267;DHT22;8241;48.786;9.250;2023-02-24T07:44:16;9.60;99.90
16267;DHT22;8241;48.786;9.250;2023-02-24T07:46:43;9.60;99.90
16267;DHT22;8241;48.786;9.250;2023-02-24T07:49:13;9.60;99.90
16267;DHT22;8241;48.786;9.250;2023-02-24T07:51:40;9.60;99.90
16267;DHT22;8241;48.786;9.250;2023-02-24T07:54:09;9.60;99.90
16267;DHT22;8241;48.786;9.250;2023-02-24T07:56:38;9.60;99.90
16267;DHT22;8241;48.786;9.250;2023-02-24T07:59:12;9.70;99.90
16267;DHT22;8241;48.786;9.250;2023-02-24T08:01:40;9.60;99.90
16267;DHT22;8241;48.786;9.250;2023-02-24T08:04:19;9.60;99.90
16267;DHT22;8241;48.786;9.250;2023-02-24T08:06:48;9.60;99.90
16267;DHT22;8241;48.786;9.250;2023-02-24T08:09:22;9.60;99.90
16267;DHT22;8241;48.786;9.250;2023-02-24T08:12:11;9.60;99.90
16267;DHT22;8241;48.786;9.250;2023-02-24T08:14:43;9.60;99.90
16267;DHT22;8241;48.786;9.250;2023-02-24T08:17:15;9.60;99.90
16267;DHT22;8241;48.786;9.250;2023-02-24T08:19:46;9.60;99.90
16267;DHT22;8241;48.786;9.250;2023-02-24T08:22:14;9.60;99.90
16267;DHT22;8241;48.786;9.250;2023-02-24T08:24:51;9.60;99.90
16267;DHT22;8241;48.786;9.250;2023-02-24T08:27:21;9.60;99.90
16267;DHT22;8241;48.786;9.250;2023-02-24T08:29:49;9.60;99.90
16267;DHT22;8241;48.786;9.250;2023-02-24T08:32:29;9.70;99.90
16267;DHT22;8241;48.786;9.250;2023-02-24T08:34:59;9.70;99.90
16267;DHT22;8241;48.786;9.250;2023-02-24T08:37:29;9.70;99.90
16267;DHT22;8241;48.786;9.250;2023-02-24T08:40:06;9.70;99.90
16267;DHT22;8241;48.786;9.250;2023-02-24T08:42:55;9.80;99.90
16267;DHT22;8241;48.786;9.250;2023-02-24T08:45:24;9.80;99.90
16267;DHT22;8241;48.786;9.250;2023-02-24T08:47:56;9.80;99.90
16267;DHT22;8241;48.786;9.250;2023-02-24T08:50:26;9.80;99.90
16267;DHT22;8241;48.786;9.250;2023-02-24T08:52:56;9.90;99.90
16267;DHT22;8241;48.786;9.250;2023-02-24T08:55:23;10.00;99.90
16267;DHT22;8241;48.786;9.250;2023-02-24T08:57:56;10.20;99.90
16267;DHT22;8241;48.786;9.250;2023-02-24T09:00:26;10.50;99.90
16267;DHT22;8241;48.786;9.250;2023-02-24T09:03:14;10.80;99.90
16267;DHT22;8241;48.786;9.250;2023-02-24T09:05:59;10.90;99.90
16267;DHT22;8241;48.786;9.250;2023-02-24T09:08:27;10.90;99.90
16267;DHT22;8241;48.786;9.250;2023-02-24T09:10:59;10.80;99.90
16267;DHT22;8241;48.786;9.250;2023-02-24T09:13:34;10.80;99.90
16267;DHT22;8241;48.786;9.250;2023-02-24T09:16:02;10.80;99.90
16267;DHT22;8241;48.786;9.250;2023-02-24T09:18:30;10.70;99.90
16267;DHT22;8241;48.786;9.250;2023-02-24T09:21:10;10.70;99.90
16267;DHT22;8241;48.786;9.250;2023-02-24T09:23:57;10.70;99.90
16267;DHT22;8241;48.786;9.250;2023-02-24T09:26:27;10.60;99.90
16267;DHT22;8241;48.786;9.250;2023-02-24T09:28:58;10.50;99.90
16267;DHT22;8241;48.786;9.250;2023-02-24T09:31:37;10.50;99.90
16267;DHT22;8241;48.786;9.250;2023-02-24T09:34:19;10.50;99.90
16267;DHT22;8241;48.786;9.250;2023-02-24T09:36:54;10.50;99.90
16267;DHT22;8241;48.786;9.250;2023-02-24T09:39:29;10.50;99.90
16267;DHT22;8241;48.786;9.250;2023-02-24T09:42:18;10.50;99.90
16267;DHT22;8241;48.786;9.250;2023-02-24T09:45:17;10.40;99.90
16267;DHT22;8241;48.786;9.250;2023-02-24T09:47:58;10.50;99.90
16267;DHT22;8241;48.786;9.250;2023-02-24T09:50:38;10.50;99.90
16267;DHT22;8241;48.786;9.250;2023-02-24T09:53:14;10.50;99.90
16267;DHT22;8241;48.786;9.250;2023-02-24T09:55:49;10.60;99.90
16267;DHT22;8241;48.786;9.250;2023-02-24T09:58:32;10.60;99.90
16267;DHT22;8241;48.786;9.250;2023-02-24T10:01:06;10.70;99.90
16267;DHT22;8241;48.786;9.250;2023-02-24T10:03:50;10.60;99.90
16267;DHT22;8241;48.786;9.250;2023-02-24T10:06:30;10.70;99.90
16267;DHT22;8241;48.786;9.250;2023-02-24T10:09:03;10.80;99.90
16267;DHT22;8241;48.786;9.250;2023-02-24T10:11:39;11.00;99.90
16267;DHT22;8241;48.786;9.250;2023-02-24T10:14:28;11.10;99.90
16267;DHT22;8241;48.786;9.250;2023-02-24T10:16:58;11.20;99.90
16267;DHT22;8241;48.786;9.250;2023-02-24T10:19:40;11.30;99.90
16267;DHT22;8241;48.786;9.250;2023-02-24T10:22:15;11.30;99.90
16267;DHT22;8241;48.786;9.250;2023-02-24T10:25:02;11.30;99.90
16267;DHT22;8241;48.786;9.250;2023-02-24T10:27:45;11.30;99.90
16267;DHT22;8241;48.786;9.250;2023-02-24T10:30:29;11.30;99.90
16267;DHT22;8241;48.786;9.250;2023-02-24T10:33:19;11.30;99.90
16267;DHT22;8241;48.786;9.250;2023-02-24T10:36:02;11.20;99.90
16267;DHT22;8241;48.786;9.250;2023-02-24T10:38:35;11.10;99.90
16267;DHT22;8241;48.786;9.250;2023-02-24T10:41:03;11.10;99.90
16267;DHT22;8241;48.786;9.250;2023-02-24T10:43:32;11.10;99.90
16267;DHT22;8241;48.786;9.250;2023-02-24T10:46:26;11.10;99.90
16267;DHT22;8241;48.786;9.250;2023-02-24T10:49:01;11.10;99.90
16267;DHT22;8241;48.786;9.250;2023-02-24T10:51:32;11.10;99.90
16267;DHT22;8241;48.786;9.250;2023-02-24T10:54:06;11.00;99.90
16267;DHT22;8241;48.786;9.250;2023-02-24T10:57:02;11.00;99.90
16267;DHT22;8241;48.786;9.250;2023-02-24T10:59:51;10.90;99.90
16267;DHT22;8241;48.786;9.250;2023-02-24T11:02:43;10.90;99.90
16267;DHT22;8241;48.786;9.250;2023-02-24T11:05:23;10.90;99.90
16267;DHT22;8241;48.786;9.250;2023-02-24T11:08:05;11.00;99.90
16267;DHT22;8241;48.786;9.250;2023-02-24T11:10:39;11.00;99.90
16267;DHT22;8241;48.786;9.250;2023-02-24T11:13:18;11.00;99.90
16267;DHT22;8241;48.786;9.250;2023-02-24T11:16:07;11.00;99.90
16267;DHT22;8241;48.786;9.250;2023-02-24T11:18:53;11.00;99.90
16267;DHT22;8241;48.786;9.250;2023-02-24T11:21:24;10.90;99.90
16267;DHT22;8241;48.786;9.250;2023-02-24T11:23:55;10.90;99.90
16267;DHT22;8241;48.786;9.250;2023-02-24T11:26:24;10.90;99.90
16267;DHT22;8241;48.786;9.250;2023-02-24T11:29:00;10.80;99.90
16267;DHT22;8241;48.786;9.250;2023-02-24T11:31:57;10.80;99.90
16267;DHT22;8241;48.786;9.250;2023-02-24T11:34:32;10.80;99.90
16267;DHT22;8241;48.786;9.250;2023-02-24T11:37:11;10.70;99.90
16267;DHT22;8241;48.786;9.250;2023-02-24T11:39:49;10.70;99.90
16267;DHT22;8241;48.786;9.250;2023-02-24T11:42:21;10.70;99.90
16267;DHT22;8241;48.786;9.250;2023-02-24T11:44:52;10.70;99.90
16267;DHT22;8241;48.786;9.250;2023-02-24T11:47:23;10.70;99.90
16267;DHT22;8241;48.786;9.250;2023-02-24T11:49:56;10.80;99.90
16267;DHT22;8241;48.786;9.250;2023-02-24T11:52:33;10.70;99.90
16267;DHT22;8241;48.786;9.250;2023-02-24T11:55:02;10.70;99.90
16267;DHT22;8241;48.786;9.250;2023-02-24T11:57:37;10.80;99.90
16267;DHT22;8241;48.786;9.250;2023-02-24T12:00:13;10.80;99.90
16267;DHT22;8241;48.786;9.250;2023-02-24T12:02:48;10.70;99.90
16267;DHT22;8241;48.786;9.250;2023-02-24T12:05:18;10.80;99.90
16267;DHT22;8241;48.786;9.250;2023-02-24T12:07:48;10.80;99.90
16267;DHT22;8241;48.786;9.250;2023-02-24T12:10:19;10.90;99.90
16267;DHT22;8241;48.786;9.250;2023-02-24T12:12:53;10.90;99.90
16267;DHT22;8241;48.786;9.250;2023-02-24T12:15:27;10.90;99.90
16267;DHT22;8241;48.786;9.250;2023-02-24T12:18:01;11.10;99.90
16267;DHT22;8241;48.786;9.250;2023-02-24T12:20:33;11.20;99.90
16267;DHT22;8241;48.786;9.250;2023-02-24T12:23:13;11.50;99.90
16267;DHT22;8241;48.786;9.250;2023-02-24T12:25:56;12.00;99.90
16267;DHT22;8241;48.786;9.250;2023-02-24T12:28:41;12.30;99.90
16267;DHT22;8241;48.786;9.250;2023-02-24T12:31:16;12.70;99.90
16267;DHT22;8241;48.786;9.250;2023-02-24T12:33:57;13.00;99.90
16267;DHT22;8241;48.786;9.250;2023-02-24T12:36:41;12.90;99.90
16267;DHT22;8241;48.786;9.250;2023-02-24T12:39:17;12.70;99.90
16267;DHT22;8241;48.786;9.250;2023-02-24T12:41:58;12.70;99.90
16267;DHT22;8241;48.786;9.250;2023-02-24T12:44:36;13.00;99.90
16267;DHT22;8241;48.786;9.250;2023-02-24T12:47:08;13.20;99.90
16267;DHT22;8241;48.786;9.250;2023-02-24T12:49:48;13.40;99.90
16267;DHT22;8241;48.786;9.250;2023-02-24T12:52:24;13.70;99.90
16267;DHT22;8241;48.786;9.250;2023-02-24T12:54:57;13.60;99.90
16267;DHT22;8241;48.786;9.250;2023-02-24T12:57:30;13.60;99.90
16267;DHT22;8241;48.786;9.250;2023-02-24T13:00:05;13.60;99.90
16267;DHT22;8241;48.786;9.250;2023-02-24T13:02:44;13.70;99.90
16267;DHT22;8241;48.786;9.250;2023-02-24T13:05:18;13.60;99.90
16267;DHT22;8241;48.786;9.250;2023-02-24T13:08:03;13.30;99.90
16267;DHT22;8241;48.786;9.250;2023-02-24T13:10:39;13.00;99.90
16267;DHT22;8241;48.786;9.250;2023-02-24T13:13:11;12.70;99.90
16267;DHT22;8241;48.786;9.250;2023-02-24T13:15:49;12.50;99.90
16267;DHT22;8241;48.786;9.250;2023-02-24T13:18:23;12.30;99.90
16267;DHT22;8241;48.786;9.250;2023-02-24T13:21:05;12.20;99.90
16267;DHT22;8241;48.786;9.250;2023-02-24T13:23:32;12.20;99.90
16267;DHT22;8241;48.786;9.250;2023-02-24T13:26:02;12.10;99.90
16267;DHT22;8241;48.786;9.250;2023-02-24T13:28:31;12.00;99.90
16267;DHT22;8241;48.786;9.250;2023-02-24T13:31:02;11.90;99.90
16267;DHT22;8241;48.786;9.250;2023-02-24T13:33:33;11.80;99.90
16267;DHT22;8241;48.786;9.250;2023-02-24T13:36:13;11.90;99.90
16267;DHT22;8241;48.786;9.250;2023-02-24T13:38:42;11.90;99.90
16267;DHT22;8241;48.786;9.250;2023-02-24T13:41:37;11.90;99.90
16267;DHT22;8241;48.786;9.250;2023-02-24T13:44:22;11.90;99.90
16267;DHT22;8241;48.786;9.250;2023-02-24T13:49:43;11.90;99.90
16267;DHT22;8241;48.786;9.250;2023-02-24T13:52:19;11.80;99.90
16267;DHT22;8241;48.786;9.250;2023-02-24T13:58:00;11.70;99.90
16267;DHT22;8241;48.786;9.250;2023-02-24T14:00:35;11.60;99.90
16267;DHT22;8241;48.786;9.250;2023-02-24T14:03:09;11.60;99.90
16267;DHT22;8241;48.786;9.250;2023-02-24T14:05:40;11.60;99.90
16267;DHT22;8241;48.786;9.250;2023-02-24T14:08:11;11.60;99.90
16267;DHT22;8241;48.786;9.250;2023-02-24T14:10:43;11.60;99.90
16267;DHT22;8241;48.786;9.250;2023-02-24T14:13:15;11.60;99.90
16267;DHT22;8241;48.786;9.250;2023-02-24T14:15:45;11.60;99.90
16267;DHT22;8241;48.786;9.250;2023-02-24T14:18:28;11.50;99.90
16267;DHT22;8241;48.786;9.250;2023-02-24T14:20:56;11.40;99.90
16267;DHT22;8241;48.786;9.250;2023-02-24T14:23:28;11.30;99.90
16267;DHT22;8241;48.786;9.250;2023-02-24T14:25:58;11.30;99.90
16267;DHT22;8241;48.786;9.250;2023-02-24T14:28:29;11.30;99.90
16267;DHT22;8241;48.786;9.250;2023-02-24T14:31:00;11.30;99.90
16267;DHT22;8241;48.786;9.250;2023-02-24T14:33:31;11.30;99.90
16267;DHT22;8241;48.786;9.250;2023-02-24T14:35:59;11.30;99.90
16267;DHT22;8241;48.786;9.250;2023-02-24T14:38:32;11.20;99.90
16267;DHT22;8241;48.786;9.250;2023-02-24T14:41:03;11.20;99.90
16267;DHT22;8241;48.786;9.250;2023-02-24T14:43:39;11.20;99.90
16267;DHT22;8241;48.786;9.250;2023-02-24T14:46:08;11.20;99.90
16267;DHT22;8241;48.786;9.250;2023-02-24T14:48:35;11.20;99.90
16267;DHT22;8241;48.786;9.250;2023-02-24T14:51:05;11.10;99.90
16267;DHT22;8241;48.786;9.250;2023-02-24T14:53:37;11.10;99.90
16267;DHT22;8241;48.786;9.250;2023-02-24T14:56:05;11.10;99.90
16267;DHT22;8241;48.786;9.250;2023-02-24T14:58:38;11.10;99.90
16267;DHT22;8241;48.786;9.250;2023-02-24T15:01:17;11.10;99.90
16267;DHT22;8241;48.786;9.250;2023-02-24T15:03:48;11.10;99.90
16267;DHT22;8241;48.786;9.250;2023-02-24T15:06:21;11.10;99.90
16267;DHT22;8241;48.786;9.250;2023-02-24T15:08:54;11.10;99.90
16267;DHT22;8241;48.786;9.250;2023-02-24T15:11:28;11.10;99.90
16267;DHT22;8241;48.786;9.250;2023-02-24T15:14:00;11.10;99.90
16267;DHT22;8241;48.786;9.250;2023-02-24T15:16:31;11.00;99.90
16267;DHT22;8241;48.786;9.250;2023-02-24T15:19:02;11.00;99.90
16267;DHT22;8241;48.786;9.250;2023-02-24T15:21:30;10.90;99.90
16267;DHT22;8241;48.786;9.250;2023-02-24T15:24:02;10.90;99.90
16267;DHT22;8241;48.786;9.250;2023-02-24T15:26:31;10.90;99.90
16267;DHT22;8241;48.786;9.250;2023-02-24T15:29:11;10.90;99.90
16267;DHT22;8241;48.786;9.250;2023-02-24T15:31:38;10.90;99.90
16267;DHT22;8241;48.786;9.250;2023-02-24T15:34:12;10.90;99.90
16267;DHT22;8241;48.786;9.250;2023-02-24T15:36:42;10.90;99.90
16267;DHT22;8241;48.786;9.250;2023-02-24T15:39:16;10.90;99.90
16267;DHT22;8241;48.786;9.250;2023-02-24T15:41:46;10.80;99.90
16267;DHT22;8241;48.786;9.250;2023-02-24T15:44:28;10.80;99.90
16267;DHT22;8241;48.786;9.250;2023-02-24T15:46:57;10.80;99.90
16267;DHT22;8241;48.786;9.250;2023-02-24T15:49:24;10.80;99.90
16267;DHT22;8241;48.786;9.250;2023-02-24T15:51:54;10.80;99.90
16267;DHT22;8241;48.786;9.250;2023-02-24T15:54:28;10.80;99.90
16267;DHT22;8241;48.786;9.250;2023-02-24T15:56:57;10.70;99.90
16267;DHT22;8241;48.786;9.250;2023-02-24T15:59:28;10.80;99.90
16267;DHT22;8241;48.786;9.250;2023-02-24T16:01:55;10.70;99.90
16267;DHT22;8241;48.786;9.250;2023-02-24T16:04:23;10.70;99.90
16267;DHT22;8241;48.786;9.250;2023-02-24T16:06:53;10.70;99.90
16267;DHT22;8241;48.786;9.250;2023-02-24T16:09:27;10.60;99.90
16267;DHT22;8241;48.786;9.250;2023-02-24T16:11:57;10.60;99.90
16267;DHT22;8241;48.786;9.250;2023-02-24T16:14:27;10.60;99.90
16267;DHT22;8241;48.786;9.250;2023-02-24T16:16:54;10.60;99.90
16267;DHT22;8241;48.786;9.250;2023-02-24T16:19:26;10.50;99.90
16267;DHT22;8241;48.786;9.250;2023-02-24T16:21:52;10.50;99.90
16267;DHT22;8241;48.786;9.250;2023-02-24T16:24:19;10.50;99.90
16267;DHT22;8241;48.786;9.250;2023-02-24T16:26:46;10.40;99.90
16267;DHT22;8241;48.786;9.250;2023-02-24T16:29:14;10.40;99.90
16267;DHT22;8241;48.786;9.250;2023-02-24T16:31:54;10.40;99.90
16267;DHT22;8241;48.786;9.250;2023-02-24T16:34:21;10.30;99.90
16267;DHT22;8241;48.786;9.250;2023-02-24T16:36:49;10.30;99.90
16267;DHT22;8241;48.786;9.250;2023-02-24T16:39:16;10.30;99.90
16267;DHT22;8241;48.786;9.250;2023-02-24T16:41:43;10.30;99.90
16267;DHT22;8241;48.786;9.250;2023-02-24T16:44:13;10.20;99.90